sensor_id;sensor_type;location;lat;lon;timestamp;P1;durP1;ratioP1;P2;durP2;ratioP2
32427;SDS011;18882;50.952;4.366;2023-03-23T00:01:25;2.92;;;2.25;;
32427;SDS011;18882;50.952;4.366;2023-03-23T00:03:55;4.57;;;2.20;;
32427;SDS011;18882;50.952;4.366;2023-03-23T00:06:25;5.10;;;2.00;;
32427;SDS011;18882;50.952;4.366;2023-03-23T00:08:53;3.22;;;2.35;;
32427;SDS011;18882;50.952;4.366;2023-03-23T00:11:26;5.03;;;2.70;;
32427;SDS011;18882;50.952;4.366;2023-03-23T00:13:56;3.72;;;2.65;;
32427;SDS011;18882;50.952;4.366;2023-03-23T00:16:26;8.98;;;2.50;;
32427;SDS011;18882;50.952;4.366;2023-03-23T00:18:58;4.13;;;2.33;;
32427;SDS011;18882;50.952;4.366;2023-03-23T00:21:33;4.45;;;2.05;;
32427;SDS011;18882;50.952;4.366;2023-03-23T00:26:31;3.15;;;2.17;;
32427;SDS011;18882;50.952;4.366;2023-03-23T00:28:59;3.00;;;1.98;;
32427;SDS011;18882;50.952;4.366;2023-03-23T00:31:26;6.70;;;2.67;;
32427;SDS011;18882;50.952;4.366;2023-03-23T00:33:56;5.43;;;2.97;;
32427;SDS011;18882;50.952;4.366;2023-03-23T00:36:23;7.13;;;3.22;;
32427;SDS011;18882;50.952;4.366;2023-03-23T00:38:49;6.68;;;3.38;;
32427;SDS011;18882;50.952;4.366;2023-03-23T00:41:15;6.50;;;3.75;;
32427;SDS011;18882;50.952;4.366;2023-03-23T00:43:41;4.68;;;2.95;;
32427;SDS011;18882;50.952;4.366;2023-03-23T00:46:06;7.38;;;3.38;;
32427;SDS011;18882;50.952;4.366;2023-03-23T00:48:35;5.32;;;3.00;;
32427;SDS011;18882;50.952;4.366;2023-03-23T00:51:02;5.03;;;3.40;;
32427;SDS011;18882;50.952;4.366;2023-03-23T00:53:36;5.28;;;3.17;;
32427;SDS011;18882;50.952;4.366;2023-03-23T00:56:01;4.88;;;3.08;;
32427;SDS011;18882;50.952;4.366;2023-03-23T00:58:27;7.05;;;3.10;;
32427;SDS011;18882;50.952;4.366;2023-03-23T01:00:53;4.10;;;2.70;;
32427;SDS011;18882;50.952;4.366;2023-03-23T01:03:19;4.32;;;2.05;;
32427;SDS011;18882;50.952;4.366;2023-03-23T01:05:45;4.88;;;2.03;;
32427;SDS011;18882;50.952;4.366;2023-03-23T01:08:16;4.35;;;2.10;;
32427;SDS011;18882;50.952;4.366;2023-03-23T01:10:43;1.73;;;1.60;;
32427;SDS011;18882;50.952;4.366;2023-03-23T01:13:10;5.20;;;2.35;;
32427;SDS011;18882;50.952;4.366;2023-03-23T01:15:35;1.83;;;1.48;;
32427;SDS011;18882;50.952;4.366;2023-03-23T01:18:01;3.28;;;1.65;;
32427;SDS011;18882;50.952;4.366;2023-03-23T01:20:30;3.38;;;1.70;;
32427;SDS011;18882;50.952;4.366;2023-03-23T01:22:57;3.53;;;2.00;;
32427;SDS011;18882;50.952;4.366;2023-03-23T01:25:26;2.90;;;1.95;;
32427;SDS011;18882;50.952;4.366;2023-03-23T01:27:52;3.25;;;2.13;;
32427;SDS011;18882;50.952;4.366;2023-03-23T01:30:18;3.03;;;2.20;;
32427;SDS011;18882;50.952;4.366;2023-03-23T01:32:44;2.58;;;2.10;;
32427;SDS011;18882;50.952;4.366;2023-03-23T01:35:11;3.05;;;2.47;;
32427;SDS011;18882;50.952;4.366;2023-03-23T01:37:38;3.20;;;2.30;;
32427;SDS011;18882;50.952;4.366;2023-03-23T01:40:04;4.38;;;2.50;;
32427;SDS011;18882;50.952;4.366;2023-03-23T01:42:31;5.45;;;2.95;;
32427;SDS011;18882;50.952;4.366;2023-03-23T01:45:20;5.05;;;3.22;;
32427;SDS011;18882;50.952;4.366;2023-03-23T01:47:54;4.78;;;2.85;;
32427;SDS011;18882;50.952;4.366;2023-03-23T01:50:24;5.78;;;3.33;;
32427;SDS011;18882;50.952;4.366;2023-03-23T01:52:52;6.05;;;3.00;;
32427;SDS011;18882;50.952;4.366;2023-03-23T01:55:21;5.10;;;2.92;;
32427;SDS011;18882;50.952;4.366;2023-03-23T01:57:49;5.00;;;2.50;;
32427;SDS011;18882;50.952;4.366;2023-03-23T02:00:15;9.90;;;2.85;;
32427;SDS011;18882;50.952;4.366;2023-03-23T02:02:45;5.85;;;2.40;;
32427;SDS011;18882;50.952;4.366;2023-03-23T02:05:15;2.60;;;2.00;;
32427;SDS011;18882;50.952;4.366;2023-03-23T02:07:50;4.63;;;2.22;;
32427;SDS011;18882;50.952;4.366;2023-03-23T02:10:17;3.28;;;1.85;;
32427;SDS011;18882;50.952;4.366;2023-03-23T02:12:42;4.63;;;1.98;;
32427;SDS011;18882;50.952;4.366;2023-03-23T02:15:08;2.92;;;1.88;;
32427;SDS011;18882;50.952;4.366;2023-03-23T02:17:44;3.10;;;1.65;;
32427;SDS011;18882;50.952;4.366;2023-03-23T02:28:42;3.58;;;1.52;;
32427;SDS011;18882;50.952;4.366;2023-03-23T02:34:13;6.72;;;1.40;;
32427;SDS011;18882;50.952;4.366;2023-03-23T02:39:29;3.55;;;1.55;;
32427;SDS011;18882;50.952;4.366;2023-03-23T02:42:05;3.05;;;1.20;;
32427;SDS011;18882;50.952;4.366;2023-03-23T02:44:34;2.58;;;1.65;;
32427;SDS011;18882;50.952;4.366;2023-03-23T02:47:04;2.08;;;0.90;;
32427;SDS011;18882;50.952;4.366;2023-03-23T02:49:34;4.55;;;1.10;;
32427;SDS011;18882;50.952;4.366;2023-03-23T02:52:07;3.97;;;1.23;;
32427;SDS011;18882;50.952;4.366;2023-03-23T02:54:38;2.75;;;1.20;;
32427;SDS011;18882;50.952;4.366;2023-03-23T02:57:05;5.63;;;1.13;;
32427;SDS011;18882;50.952;4.366;2023-03-23T02:59:32;4.38;;;0.95;;
32427;SDS011;18882;50.952;4.366;2023-03-23T03:02:17;1.40;;;0.60;;
32427;SDS011;18882;50.952;4.366;2023-03-23T03:04:52;2.25;;;0.70;;
32427;SDS011;18882;50.952;4.366;2023-03-23T03:07:40;1.85;;;1.00;;
32427;SDS011;18882;50.952;4.366;2023-03-23T03:13:08;1.10;;;0.60;;
32427;SDS011;18882;50.952;4.366;2023-03-23T03:15:37;1.77;;;0.70;;
32427;SDS011;18882;50.952;4.366;2023-03-23T03:21:21;3.22;;;0.88;;
32427;SDS011;18882;50.952;4.366;2023-03-23T03:23:54;5.50;;;1.05;;
32427;SDS011;18882;50.952;4.366;2023-03-23T03:26:24;3.17;;;0.60;;
32427;SDS011;18882;50.952;4.366;2023-03-23T03:28:52;1.20;;;0.63;;
32427;SDS011;18882;50.952;4.366;2023-03-23T03:31:30;1.17;;;0.90;;
32427;SDS011;18882;50.952;4.366;2023-03-23T03:34:00;4.30;;;1.02;;
32427;SDS011;18882;50.952;4.366;2023-03-23T03:36:29;3.55;;;0.70;;
32427;SDS011;18882;50.952;4.366;2023-03-23T03:39:00;2.40;;;0.63;;
32427;SDS011;18882;50.952;4.366;2023-03-23T03:41:32;2.65;;;0.70;;
32427;SDS011;18882;50.952;4.366;2023-03-23T03:44:01;6.10;;;0.50;;
32427;SDS011;18882;50.952;4.366;2023-03-23T03:46:31;1.95;;;0.60;;
32427;SDS011;18882;50.952;4.366;2023-03-23T03:49:01;1.75;;;0.60;;
32427;SDS011;18882;50.952;4.366;2023-03-23T03:51:30;3.05;;;0.60;;
32427;SDS011;18882;50.952;4.366;2023-03-23T03:53:57;4.63;;;0.77;;
32427;SDS011;18882;50.952;4.366;2023-03-23T03:56:22;5.50;;;0.80;;
32427;SDS011;18882;50.952;4.366;2023-03-23T03:58:49;2.38;;;0.50;;
32427;SDS011;18882;50.952;4.366;2023-03-23T04:01:16;1.95;;;0.80;;
32427;SDS011;18882;50.952;4.366;2023-03-23T04:03:46;2.40;;;0.70;;
32427;SDS011;18882;50.952;4.366;2023-03-23T04:06:16;8.25;;;0.95;;
32427;SDS011;18882;50.952;4.366;2023-03-23T04:08:42;1.05;;;0.50;;
32427;SDS011;18882;50.952;4.366;2023-03-23T04:11:10;3.20;;;0.57;;
32427;SDS011;18882;50.952;4.366;2023-03-23T04:13:37;1.80;;;0.60;;
32427;SDS011;18882;50.952;4.366;2023-03-23T04:16:03;3.65;;;0.70;;
32427;SDS011;18882;50.952;4.366;2023-03-23T04:18:29;4.50;;;0.90;;
32427;SDS011;18882;50.952;4.366;2023-03-23T04:20:57;5.85;;;0.93;;
32427;SDS011;18882;50.952;4.366;2023-03-23T04:23:24;3.22;;;0.60;;
32427;SDS011;18882;50.952;4.366;2023-03-23T04:25:51;6.55;;;0.82;;
32427;SDS011;18882;50.952;4.366;2023-03-23T04:28:21;3.20;;;0.85;;
32427;SDS011;18882;50.952;4.366;2023-03-23T04:30:49;7.07;;;1.48;;
32427;SDS011;18882;50.952;4.366;2023-03-23T04:33:19;4.32;;;1.08;;
32427;SDS011;18882;50.952;4.366;2023-03-23T04:35:50;7.03;;;0.80;;
32427;SDS011;18882;50.952;4.366;2023-03-23T04:38:21;1.50;;;0.52;;
32427;SDS011;18882;50.952;4.366;2023-03-23T04:40:48;4.82;;;0.85;;
32427;SDS011;18882;50.952;4.366;2023-03-23T04:43:16;5.63;;;0.85;;
32427;SDS011;18882;50.952;4.366;2023-03-23T04:45:46;5.75;;;0.50;;
32427;SDS011;18882;50.952;4.366;2023-03-23T04:48:16;8.70;;;0.70;;
32427;SDS011;18882;50.952;4.366;2023-03-23T04:50:43;2.42;;;0.70;;
32427;SDS011;18882;50.952;4.366;2023-03-23T04:53:09;10.15;;;0.85;;
32427;SDS011;18882;50.952;4.366;2023-03-23T04:55:36;5.35;;;0.60;;
32427;SDS011;18882;50.952;4.366;2023-03-23T04:58:02;3.72;;;1.33;;
32427;SDS011;18882;50.952;4.366;2023-03-23T05:00:29;4.22;;;0.93;;
32427;SDS011;18882;50.952;4.366;2023-03-23T05:02:54;4.30;;;0.95;;
32427;SDS011;18882;50.952;4.366;2023-03-23T05:05:20;4.68;;;0.70;;
32427;SDS011;18882;50.952;4.366;2023-03-23T05:07:47;3.33;;;0.70;;
32427;SDS011;18882;50.952;4.366;2023-03-23T05:10:14;1.80;;;0.88;;
32427;SDS011;18882;50.952;4.366;2023-03-23T05:12:40;2.85;;;0.68;;
32427;SDS011;18882;50.952;4.366;2023-03-23T05:15:07;6.57;;;0.75;;
32427;SDS011;18882;50.952;4.366;2023-03-23T05:17:35;1.38;;;0.55;;
32427;SDS011;18882;50.952;4.366;2023-03-23T05:20:01;7.72;;;0.95;;
32427;SDS011;18882;50.952;4.366;2023-03-23T05:22:33;3.00;;;1.10;;
32427;SDS011;18882;50.952;4.366;2023-03-23T05:24:59;8.13;;;0.90;;
32427;SDS011;18882;50.952;4.366;2023-03-23T05:27:28;6.63;;;0.80;;
32427;SDS011;18882;50.952;4.366;2023-03-23T05:29:55;7.97;;;1.35;;
32427;SDS011;18882;50.952;4.366;2023-03-23T05:32:25;2.05;;;0.57;;
32427;SDS011;18882;50.952;4.366;2023-03-23T05:34:54;1.67;;;0.45;;
32427;SDS011;18882;50.952;4.366;2023-03-23T05:37:21;3.13;;;0.45;;
32427;SDS011;18882;50.952;4.366;2023-03-23T05:39:48;3.30;;;0.57;;
32427;SDS011;18882;50.952;4.366;2023-03-23T05:42:13;7.75;;;0.73;;
32427;SDS011;18882;50.952;4.366;2023-03-23T05:44:39;3.38;;;0.77;;
32427;SDS011;18882;50.952;4.366;2023-03-23T05:47:05;3.25;;;0.60;;
32427;SDS011;18882;50.952;4.366;2023-03-23T05:49:30;5.95;;;1.23;;
32427;SDS011;18882;50.952;4.366;2023-03-23T05:51:56;5.15;;;1.42;;
32427;SDS011;18882;50.952;4.366;2023-03-23T05:54:21;6.13;;;1.30;;
32427;SDS011;18882;50.952;4.366;2023-03-23T05:56:47;3.10;;;0.68;;
32427;SDS011;18882;50.952;4.366;2023-03-23T05:59:14;5.13;;;1.00;;
32427;SDS011;18882;50.952;4.366;2023-03-23T06:01:40;2.72;;;0.93;;
32427;SDS011;18882;50.952;4.366;2023-03-23T06:04:05;1.40;;;0.65;;
32427;SDS011;18882;50.952;4.366;2023-03-23T06:06:31;1.98;;;0.82;;
32427;SDS011;18882;50.952;4.366;2023-03-23T06:08:57;5.75;;;0.80;;
32427;SDS011;18882;50.952;4.366;2023-03-23T06:11:24;5.25;;;0.88;;
32427;SDS011;18882;50.952;4.366;2023-03-23T06:13:51;2.38;;;0.80;;
32427;SDS011;18882;50.952;4.366;2023-03-23T06:16:17;3.13;;;0.70;;
32427;SDS011;18882;50.952;4.366;2023-03-23T06:18:44;9.05;;;0.93;;
32427;SDS011;18882;50.952;4.366;2023-03-23T06:21:10;7.40;;;0.68;;
32427;SDS011;18882;50.952;4.366;2023-03-23T06:23:37;9.70;;;1.02;;
32427;SDS011;18882;50.952;4.366;2023-03-23T06:26:05;3.80;;;0.93;;
32427;SDS011;18882;50.952;4.366;2023-03-23T06:28:32;4.85;;;0.88;;
32427;SDS011;18882;50.952;4.366;2023-03-23T06:31:02;5.03;;;0.75;;
32427;SDS011;18882;50.952;4.366;2023-03-23T06:33:31;3.72;;;0.80;;
32427;SDS011;18882;50.952;4.366;2023-03-23T06:36:00;2.88;;;0.55;;
32427;SDS011;18882;50.952;4.366;2023-03-23T06:38:26;1.38;;;0.20;;
32427;SDS011;18882;50.952;4.366;2023-03-23T06:40:54;2.92;;;0.32;;
32427;SDS011;18882;50.952;4.366;2023-03-23T06:43:20;4.20;;;0.30;;
32427;SDS011;18882;50.952;4.366;2023-03-23T06:45:46;2.15;;;0.32;;
32427;SDS011;18882;50.952;4.366;2023-03-23T06:48:12;3.70;;;0.85;;
32427;SDS011;18882;50.952;4.366;2023-03-23T06:50:38;0.45;;;0.22;;
32427;SDS011;18882;50.952;4.366;2023-03-23T06:53:06;4.13;;;0.38;;
32427;SDS011;18882;50.952;4.366;2023-03-23T06:55:32;2.33;;;0.40;;
32427;SDS011;18882;50.952;4.366;2023-03-23T06:57:58;1.08;;;0.35;;
32427;SDS011;18882;50.952;4.366;2023-03-23T07:00:26;0.68;;;0.52;;
32427;SDS011;18882;50.952;4.366;2023-03-23T07:02:52;3.83;;;0.30;;
32427;SDS011;18882;50.952;4.366;2023-03-23T07:05:18;1.63;;;0.30;;
32427;SDS011;18882;50.952;4.366;2023-03-23T07:07:44;0.85;;;0.22;;
32427;SDS011;18882;50.952;4.366;2023-03-23T07:10:10;3.00;;;0.32;;
32427;SDS011;18882;50.952;4.366;2023-03-23T07:12:36;0.35;;;0.20;;
32427;SDS011;18882;50.952;4.366;2023-03-23T07:15:04;3.10;;;0.20;;
32427;SDS011;18882;50.952;4.366;2023-03-23T07:17:32;2.85;;;0.25;;
32427;SDS011;18882;50.952;4.366;2023-03-23T07:19:58;2.35;;;0.40;;
32427;SDS011;18882;50.952;4.366;2023-03-23T07:22:24;0.77;;;0.30;;
32427;SDS011;18882;50.952;4.366;2023-03-23T07:24:50;2.25;;;0.38;;
32427;SDS011;18882;50.952;4.366;2023-03-23T07:27:15;1.40;;;0.40;;
32427;SDS011;18882;50.952;4.366;2023-03-23T07:29:41;2.95;;;0.30;;
32427;SDS011;18882;50.952;4.366;2023-03-23T07:32:10;3.42;;;0.50;;
32427;SDS011;18882;50.952;4.366;2023-03-23T07:34:37;1.25;;;0.20;;
32427;SDS011;18882;50.952;4.366;2023-03-23T07:37:03;4.53;;;0.60;;
32427;SDS011;18882;50.952;4.366;2023-03-23T07:39:29;1.00;;;0.30;;
32427;SDS011;18882;50.952;4.366;2023-03-23T07:41:55;0.90;;;0.20;;
32427;SDS011;18882;50.952;4.366;2023-03-23T07:44:21;3.42;;;0.30;;
32427;SDS011;18882;50.952;4.366;2023-03-23T07:46:47;2.65;;;0.47;;
32427;SDS011;18882;50.952;4.366;2023-03-23T07:49:13;2.08;;;0.60;;
32427;SDS011;18882;50.952;4.366;2023-03-23T07:51:39;1.45;;;0.30;;
32427;SDS011;18882;50.952;4.366;2023-03-23T07:54:05;3.55;;;0.98;;
32427;SDS011;18882;50.952;4.366;2023-03-23T07:56:32;1.77;;;0.20;;
32427;SDS011;18882;50.952;4.366;2023-03-23T07:59:00;1.92;;;0.88;;
32427;SDS011;18882;50.952;4.366;2023-03-23T08:01:26;2.17;;;0.47;;
32427;SDS011;18882;50.952;4.366;2023-03-23T08:03:51;2.83;;;0.52;;
32427;SDS011;18882;50.952;4.366;2023-03-23T08:06:19;5.38;;;0.50;;
32427;SDS011;18882;50.952;4.366;2023-03-23T08:08:46;2.80;;;0.52;;
32427;SDS011;18882;50.952;4.366;2023-03-23T08:11:11;4.97;;;1.00;;
32427;SDS011;18882;50.952;4.366;2023-03-23T08:13:40;1.15;;;0.63;;
32427;SDS011;18882;50.952;4.366;2023-03-23T08:16:06;2.10;;;0.60;;
32427;SDS011;18882;50.952;4.366;2023-03-23T08:18:34;3.10;;;0.90;;
32427;SDS011;18882;50.952;4.366;2023-03-23T08:21:01;4.53;;;0.70;;
32427;SDS011;18882;50.952;4.366;2023-03-23T08:23:29;3.15;;;0.50;;
32427;SDS011;18882;50.952;4.366;2023-03-23T08:25:55;6.60;;;0.93;;
32427;SDS011;18882;50.952;4.366;2023-03-23T08:28:21;3.00;;;0.68;;
32427;SDS011;18882;50.952;4.366;2023-03-23T08:30:47;3.53;;;0.60;;
32427;SDS011;18882;50.952;4.366;2023-03-23T08:33:14;4.45;;;0.57;;
32427;SDS011;18882;50.952;4.366;2023-03-23T08:35:39;0.90;;;0.52;;
32427;SDS011;18882;50.952;4.366;2023-03-23T08:38:06;4.10;;;0.63;;
32427;SDS011;18882;50.952;4.366;2023-03-23T08:40:31;3.08;;;0.40;;
32427;SDS011;18882;50.952;4.366;2023-03-23T08:42:57;1.73;;;0.52;;
32427;SDS011;18882;50.952;4.366;2023-03-23T08:45:23;2.35;;;0.47;;
32427;SDS011;18882;50.952;4.366;2023-03-23T08:47:51;2.65;;;0.40;;
32427;SDS011;18882;50.952;4.366;2023-03-23T08:50:19;1.98;;;0.90;;
32427;SDS011;18882;50.952;4.366;2023-03-23T08:52:47;1.40;;;0.52;;
32427;SDS011;18882;50.952;4.366;2023-03-23T08:55:14;4.25;;;0.43;;
32427;SDS011;18882;50.952;4.366;2023-03-23T08:57:40;2.63;;;0.40;;
32427;SDS011;18882;50.952;4.366;2023-03-23T09:00:08;4.28;;;0.45;;
32427;SDS011;18882;50.952;4.366;2023-03-23T09:02:42;1.73;;;0.50;;
32427;SDS011;18882;50.952;4.366;2023-03-23T09:05:12;1.60;;;0.47;;
32427;SDS011;18882;50.952;4.366;2023-03-23T09:07:44;3.88;;;0.60;;
32427;SDS011;18882;50.952;4.366;2023-03-23T09:10:13;3.90;;;0.57;;
32427;SDS011;18882;50.952;4.366;2023-03-23T09:12:40;5.43;;;0.82;;
32427;SDS011;18882;50.952;4.366;2023-03-23T09:15:07;0.95;;;0.70;;
32427;SDS011;18882;50.952;4.366;2023-03-23T09:17:38;1.85;;;0.50;;
32427;SDS011;18882;50.952;4.366;2023-03-23T09:20:07;5.45;;;0.68;;
32427;SDS011;18882;50.952;4.366;2023-03-23T09:22:41;1.67;;;0.50;;
32427;SDS011;18882;50.952;4.366;2023-03-23T09:25:13;6.78;;;0.50;;
32427;SDS011;18882;50.952;4.366;2023-03-23T09:27:40;0.70;;;0.43;;
32427;SDS011;18882;50.952;4.366;2023-03-23T09:30:08;2.72;;;0.80;;
32427;SDS011;18882;50.952;4.366;2023-03-23T09:32:37;3.65;;;0.52;;
32427;SDS011;18882;50.952;4.366;2023-03-23T09:35:04;1.30;;;0.60;;
32427;SDS011;18882;50.952;4.366;2023-03-23T09:37:33;4.82;;;0.43;;
32427;SDS011;18882;50.952;4.366;2023-03-23T09:40:00;0.70;;;0.50;;
32427;SDS011;18882;50.952;4.366;2023-03-23T09:42:32;3.22;;;0.75;;
32427;SDS011;18882;50.952;4.366;2023-03-23T09:45:23;3.15;;;0.30;;
32427;SDS011;18882;50.952;4.366;2023-03-23T09:50:33;1.02;;;0.57;;
32427;SDS011;18882;50.952;4.366;2023-03-23T09:53:02;2.08;;;1.02;;
32427;SDS011;18882;50.952;4.366;2023-03-23T09:55:39;4.15;;;0.70;;
32427;SDS011;18882;50.952;4.366;2023-03-23T09:58:11;3.67;;;0.63;;
32427;SDS011;18882;50.952;4.366;2023-03-23T10:00:45;3.67;;;0.60;;
32427;SDS011;18882;50.952;4.366;2023-03-23T10:03:17;2.60;;;0.43;;
32427;SDS011;18882;50.952;4.366;2023-03-23T10:05:47;0.93;;;0.60;;
32427;SDS011;18882;50.952;4.366;2023-03-23T10:08:15;0.82;;;0.65;;
32427;SDS011;18882;50.952;4.366;2023-03-23T10:10:54;0.55;;;0.55;;
32427;SDS011;18882;50.952;4.366;2023-03-23T10:13:53;3.03;;;1.40;;
32427;SDS011;18882;50.952;4.366;2023-03-23T10:16:31;1.83;;;0.70;;
32427;SDS011;18882;50.952;4.366;2023-03-23T10:19:20;2.07;;;0.73;;
32427;SDS011;18882;50.952;4.366;2023-03-23T10:22:09;3.13;;;0.80;;
32427;SDS011;18882;50.952;4.366;2023-03-23T10:30:27;2.47;;;0.95;;
32427;SDS011;18882;50.952;4.366;2023-03-23T10:33:08;2.95;;;0.95;;
32427;SDS011;18882;50.952;4.366;2023-03-23T10:35:42;2.00;;;0.88;;
32427;SDS011;18882;50.952;4.366;2023-03-23T10:38:14;1.10;;;0.70;;
32427;SDS011;18882;50.952;4.366;2023-03-23T10:40:49;3.53;;;0.90;;
32427;SDS011;18882;50.952;4.366;2023-03-23T10:43:20;4.22;;;1.02;;
32427;SDS011;18882;50.952;4.366;2023-03-23T10:45:47;2.97;;;1.23;;
32427;SDS011;18882;50.952;4.366;2023-03-23T10:48:25;1.10;;;0.75;;
32427;SDS011;18882;50.952;4.366;2023-03-23T10:50:56;9.10;;;0.98;;
32427;SDS011;18882;50.952;4.366;2023-03-23T10:53:29;2.85;;;0.80;;
32427;SDS011;18882;50.952;4.366;2023-03-23T10:56:04;4.95;;;0.80;;
32427;SDS011;18882;50.952;4.366;2023-03-23T10:58:43;6.03;;;1.63;;
32427;SDS011;18882;50.952;4.366;2023-03-23T11:01:09;3.50;;;0.70;;
32427;SDS011;18882;50.952;4.366;2023-03-23T11:06:18;3.38;;;1.15;;
32427;SDS011;18882;50.952;4.366;2023-03-23T11:08:54;3.38;;;0.80;;
32427;SDS011;18882;50.952;4.366;2023-03-23T11:11:29;6.95;;;1.85;;
32427;SDS011;18882;50.952;4.366;2023-03-23T11:13:57;3.00;;;0.90;;
32427;SDS011;18882;50.952;4.366;2023-03-23T11:16:29;3.67;;;0.95;;
32427;SDS011;18882;50.952;4.366;2023-03-23T11:19:00;4.20;;;0.98;;
32427;SDS011;18882;50.952;4.366;2023-03-23T11:21:38;6.43;;;1.27;;
32427;SDS011;18882;50.952;4.366;2023-03-23T11:24:04;6.15;;;1.02;;
32427;SDS011;18882;50.952;4.366;2023-03-23T11:26:31;2.58;;;1.13;;
32427;SDS011;18882;50.952;4.366;2023-03-23T11:29:16;4.53;;;1.15;;
32427;SDS011;18882;50.952;4.366;2023-03-23T11:31:45;8.52;;;1.45;;
32427;SDS011;18882;50.952;4.366;2023-03-23T11:34:40;7.90;;;1.42;;
32427;SDS011;18882;50.952;4.366;2023-03-23T11:37:15;6.97;;;1.52;;
32427;SDS011;18882;50.952;4.366;2023-03-23T11:39:55;3.38;;;1.00;;
32427;SDS011;18882;50.952;4.366;2023-03-23T11:48:11;4.82;;;1.30;;
32427;SDS011;18882;50.952;4.366;2023-03-23T11:51:02;1.85;;;0.98;;
32427;SDS011;18882;50.952;4.366;2023-03-23T11:56:39;4.32;;;1.33;;
32427;SDS011;18882;50.952;4.366;2023-03-23T11:59:12;7.40;;;1.45;;
32427;SDS011;18882;50.952;4.366;2023-03-23T12:02:04;5.65;;;1.50;;
32427;SDS011;18882;50.952;4.366;2023-03-23T12:05:22;7.50;;;1.17;;
32427;SDS011;18882;50.952;4.366;2023-03-23T12:10:52;7.20;;;1.48;;
32427;SDS011;18882;50.952;4.366;2023-03-23T12:16:53;2.70;;;0.93;;
32427;SDS011;18882;50.952;4.366;2023-03-23T12:27:54;4.40;;;1.15;;
32427;SDS011;18882;50.952;4.366;2023-03-23T12:36:26;11.50;;;1.42;;
32427;SDS011;18882;50.952;4.366;2023-03-23T12:50:40;10.57;;;1.23;;
32427;SDS011;18882;50.952;4.366;2023-03-23T12:53:23;2.38;;;0.77;;
32427;SDS011;18882;50.952;4.366;2023-03-23T12:56:55;3.22;;;0.70;;
32427;SDS011;18882;50.952;4.366;2023-03-23T13:04:42;4.70;;;1.05;;
32427;SDS011;18882;50.952;4.366;2023-03-23T13:07:13;2.53;;;0.85;;
32427;SDS011;18882;50.952;4.366;2023-03-23T13:12:47;5.93;;;1.00;;
32427;SDS011;18882;50.952;4.366;2023-03-23T13:15:17;10.32;;;1.55;;
32427;SDS011;18882;50.952;4.366;2023-03-23T13:18:11;7.00;;;1.13;;
32427;SDS011;18882;50.952;4.366;2023-03-23T13:20:54;3.45;;;1.15;;
32427;SDS011;18882;50.952;4.366;2023-03-23T13:23:55;6.85;;;1.05;;
32427;SDS011;18882;50.952;4.366;2023-03-23T13:26:30;3.97;;;0.93;;
32427;SDS011;18882;50.952;4.366;2023-03-23T13:29:00;4.85;;;1.40;;
32427;SDS011;18882;50.952;4.366;2023-03-23T13:31:43;4.38;;;1.10;;
32427;SDS011;18882;50.952;4.366;2023-03-23T13:36:58;3.65;;;0.90;;
32427;SDS011;18882;50.952;4.366;2023-03-23T13:39:30;3.55;;;0.98;;
32427;SDS011;18882;50.952;4.366;2023-03-23T14:06:20;7.50;;;1.15;;
32427;SDS011;18882;50.952;4.366;2023-03-23T14:13:45;3.75;;;1.55;;
32427;SDS011;18882;50.952;4.366;2023-03-23T14:18:56;7.32;;;1.38;;
32427;SDS011;18882;50.952;4.366;2023-03-23T14:24:12;2.38;;;0.80;;
32427;SDS011;18882;50.952;4.366;2023-03-23T14:26:42;4.93;;;0.98;;
32427;SDS011;18882;50.952;4.366;2023-03-23T14:29:10;1.98;;;0.60;;
32427;SDS011;18882;50.952;4.366;2023-03-23T14:31:38;8.20;;;0.77;;
32427;SDS011;18882;50.952;4.366;2023-03-23T14:34:12;4.63;;;1.00;;
32427;SDS011;18882;50.952;4.366;2023-03-23T14:36:40;4.15;;;0.68;;
32427;SDS011;18882;50.952;4.366;2023-03-23T14:41:56;2.63;;;0.80;;
32427;SDS011;18882;50.952;4.366;2023-03-23T14:44:30;5.20;;;1.08;;
32427;SDS011;18882;50.952;4.366;2023-03-23T14:46:58;6.40;;;0.88;;
32427;SDS011;18882;50.952;4.366;2023-03-23T14:49:30;7.97;;;1.25;;
32427;SDS011;18882;50.952;4.366;2023-03-23T14:52:02;7.00;;;1.23;;
32427;SDS011;18882;50.952;4.366;2023-03-23T14:54:33;4.57;;;0.82;;
32427;SDS011;18882;50.952;4.366;2023-03-23T14:57:02;6.10;;;1.25;;
32427;SDS011;18882;50.952;4.366;2023-03-23T14:59:35;6.03;;;0.90;;
32427;SDS011;18882;50.952;4.366;2023-03-23T15:02:01;8.55;;;1.70;;
32427;SDS011;18882;50.952;4.366;2023-03-23T15:04:27;2.15;;;1.05;;
32427;SDS011;18882;50.952;4.366;2023-03-23T15:06:58;3.95;;;1.27;;
32427;SDS011;18882;50.952;4.366;2023-03-23T15:09:28;9.25;;;1.73;;
32427;SDS011;18882;50.952;4.366;2023-03-23T15:11:55;4.47;;;1.20;;
32427;SDS011;18882;50.952;4.366;2023-03-23T15:14:27;3.50;;;0.82;;
32427;SDS011;18882;50.952;4.366;2023-03-23T15:16:58;4.03;;;1.25;;
32427;SDS011;18882;50.952;4.366;2023-03-23T15:19:32;5.40;;;1.30;;
32427;SDS011;18882;50.952;4.366;2023-03-23T15:22:05;5.28;;;1.13;;
32427;SDS011;18882;50.952;4.366;2023-03-23T15:24:38;7.45;;;1.27;;
32427;SDS011;18882;50.952;4.366;2023-03-23T15:32:22;5.47;;;1.23;;
32427;SDS011;18882;50.952;4.366;2023-03-23T15:34:49;6.53;;;1.33;;
32427;SDS011;18882;50.952;4.366;2023-03-23T15:37:20;5.72;;;1.70;;
32427;SDS011;18882;50.952;4.366;2023-03-23T15:39:48;10.95;;;1.30;;
32427;SDS011;18882;50.952;4.366;2023-03-23T15:42:22;9.73;;;1.13;;
32427;SDS011;18882;50.952;4.366;2023-03-23T15:44:57;6.95;;;1.80;;
32427;SDS011;18882;50.952;4.366;2023-03-23T15:47:44;2.78;;;0.90;;
32427;SDS011;18882;50.952;4.366;2023-03-23T15:50:14;5.60;;;1.33;;
32427;SDS011;18882;50.952;4.366;2023-03-23T15:52:45;14.70;;;2.30;;
32427;SDS011;18882;50.952;4.366;2023-03-23T15:57:54;13.40;;;3.15;;
32427;SDS011;18882;50.952;4.366;2023-03-23T16:00:23;12.70;;;3.03;;
32427;SDS011;18882;50.952;4.366;2023-03-23T16:02:57;17.63;;;3.50;;
32427;SDS011;18882;50.952;4.366;2023-03-23T16:05:25;17.02;;;4.40;;
32427;SDS011;18882;50.952;4.366;2023-03-23T16:07:52;10.20;;;3.13;;
32427;SDS011;18882;50.952;4.366;2023-03-23T16:10:19;11.00;;;3.42;;
32427;SDS011;18882;50.952;4.366;2023-03-23T16:12:46;7.80;;;2.80;;
32427;SDS011;18882;50.952;4.366;2023-03-23T16:15:12;19.70;;;3.13;;
32427;SDS011;18882;50.952;4.366;2023-03-23T16:17:38;10.00;;;2.88;;
32427;SDS011;18882;50.952;4.366;2023-03-23T16:20:27;11.43;;;2.85;;
32427;SDS011;18882;50.952;4.366;2023-03-23T16:22:52;5.38;;;1.65;;
32427;SDS011;18882;50.952;4.366;2023-03-23T16:25:18;13.52;;;1.55;;
32427;SDS011;18882;50.952;4.366;2023-03-23T16:27:43;6.93;;;1.55;;
32427;SDS011;18882;50.952;4.366;2023-03-23T16:30:20;2.85;;;0.90;;
32427;SDS011;18882;50.952;4.366;2023-03-23T16:35:15;3.28;;;1.13;;
32427;SDS011;18882;50.952;4.366;2023-03-23T16:37:47;4.65;;;0.90;;
32427;SDS011;18882;50.952;4.366;2023-03-23T16:40:15;8.23;;;1.67;;
32427;SDS011;18882;50.952;4.366;2023-03-23T16:42:44;4.70;;;1.13;;
32427;SDS011;18882;50.952;4.366;2023-03-23T16:45:10;6.57;;;1.25;;
32427;SDS011;18882;50.952;4.366;2023-03-23T16:47:37;6.97;;;1.27;;
32427;SDS011;18882;50.952;4.366;2023-03-23T16:50:04;8.40;;;0.93;;
32427;SDS011;18882;50.952;4.366;2023-03-23T16:52:31;6.93;;;1.25;;
32427;SDS011;18882;50.952;4.366;2023-03-23T16:54:57;5.82;;;1.20;;
32427;SDS011;18882;50.952;4.366;2023-03-23T16:57:22;3.63;;;1.02;;
32427;SDS011;18882;50.952;4.366;2023-03-23T16:59:49;4.93;;;1.77;;
32427;SDS011;18882;50.952;4.366;2023-03-23T17:02:14;11.73;;;2.45;;
32427;SDS011;18882;50.952;4.366;2023-03-23T17:04:44;12.88;;;3.38;;
32427;SDS011;18882;50.952;4.366;2023-03-23T17:07:10;12.05;;;3.42;;
32427;SDS011;18882;50.952;4.366;2023-03-23T17:09:38;14.90;;;3.92;;
32427;SDS011;18882;50.952;4.366;2023-03-23T17:12:04;9.73;;;2.97;;
32427;SDS011;18882;50.952;4.366;2023-03-23T17:14:30;9.10;;;2.35;;
32427;SDS011;18882;50.952;4.366;2023-03-23T17:16:56;8.40;;;2.85;;
32427;SDS011;18882;50.952;4.366;2023-03-23T17:19:22;7.88;;;2.20;;